Latest Weather Observations for Cape Borda

IDS60801

Issued at 6:01 am CST Thursday 16 August 2018 (issued every 10 minutes, with the page automatically refreshed every 10 minutes)

About weather observations | Map of weather stations | Latest weather observations for SA | Other Formats
Station Details ID: 022823 Name: CAPE BORDA Lat: -35.75 Lon: 136.60 Height: 158.0 m
Data from the previous 72 hours. | See also: Recent months at Cape Borda
Date/Time
CST
Temp
°C
App
Temp
°C
Dew
Point
°C
Rel
Hum
%
Delta-T
°C
Wind Press
QNH
hPa
Press
MSL
hPa
Rain since
9am
mm
Dir  Spd
km/h
Gust
km/h
Spd
kts
Gust
kts
16/06:00am 9.2 4.3 4.0 70 2.3 W 19 26 10 14 1015.5 1015.6 0.4
16/05:30am 9.6 5.9 4.7 71 2.2 SSW 13 20 7 11 1015.4 - 0.4
16/05:00am 9.5 3.8 2.8 63 2.9 SW 22 32 12 17 1015.3 - 0.4
16/04:30am 8.7 4.6 4.4 74 1.9 S 15 24 8 13 1015.2 - 0.4
16/04:00am 10.1 4.7 2.7 60 3.2 WSW 20 32 11 17 1015.0 - 0.4
16/03:30am 9.8 4.4 2.3 59 3.2 SW 20 35 11 19 1014.9 - 0.4
16/03:00am 10.0 4.1 3.7 65 2.8 WSW 24 33 13 18 1015.2 1015.3 0.4
16/02:30am 10.1 4.5 3.2 62 3.0 WSW 22 30 12 16 1015.3 - 0.4
16/02:00am 9.9 3.8 4.6 69 2.4 WSW 26 39 14 21 1015.4 - 0.4
16/01:30am 10.3 4.4 3.8 64 2.9 WSW 24 35 13 19 1015.4 - 0.4
16/01:00am 10.2 4.9 4.9 69 2.4 W 22 30 12 16 1015.4 - 0.4
16/12:30am 9.7 5.3 4.6 70 2.3 WSW 17 24 9 13 1015.4 - 0.4
16/12:00am 10.2 4.2 3.6 63 2.9 WSW 24 37 13 20 1015.4 1015.5 0.4
 
Date/Time
CST
Temp
°C
App
Temp
°C
Dew
Point
°C
Rel
Hum
%
Delta-T
°C
Wind Press
QNH
hPa
Press
MSL
hPa
Rain since
9am
mm
Dir  Spd
km/h
Gust
km/h
Spd
kts
Gust
kts
15/11:55pm 10.1 3.4 3.5 63 2.9 WSW 28 46 15 25 1015.4 - 0.4
15/11:30pm 9.8 3.9 3.9 66 2.6 SW 24 35 13 19 1015.3 - 0.4
15/11:00pm 10.3 4.8 3.8 64 2.9 SW 22 35 12 19 1015.3 - 0.4
15/10:30pm 10.4 4.1 3.6 63 3.0 WSW 26 37 14 20 1015.4 - 0.4
15/10:07pm 10.5 3.6 4.8 68 2.6 WSW 30 50 16 27 1015.3 - 0.4
15/10:00pm 10.7 4.0 3.5 61 3.2 WSW 28 41 15 22 1015.3 - 0.4
15/09:30pm 10.0 3.8 4.2 67 2.6 WSW 26 37 14 20 1015.1 - 0.4
15/09:00pm 10.5 4.3 4.3 65 2.8 WSW 26 41 14 22 1014.9 1015.0 0.4
15/08:30pm 10.6 3.9 3.6 62 3.1 WSW 28 41 15 22 1014.7 - 0.4
15/08:00pm 10.7 3.2 4.3 64 2.9 WSW 33 44 18 24 1014.4 - 0.4
15/07:30pm 10.8 3.4 4.1 63 3.0 WSW 32 44 17 24 1014.3 - 0.4
15/07:04pm 11.1 4.2 6.5 73 2.2 W 32 54 17 29 1013.8 - 0.4
15/07:00pm 11.0 4.7 5.9 71 2.4 W 28 39 15 21 1013.8 - 0.4
15/06:30pm 10.8 3.4 4.9 67 2.7 WSW 33 48 18 26 1013.4 - 0.4
15/06:00pm 10.3 3.2 5.3 71 2.3 WSW 32 41 17 22 1013.2 1013.4 0.4
15/05:30pm 9.8 3.3 6.6 80 1.5 WSW 30 46 16 25 1013.0 - 0.4
15/05:00pm 10.7 3.9 5.0 68 2.6 WSW 30 56 16 30 1012.7 - 0.2
15/04:33pm 12.3 5.1 5.2 62 3.3 WSW 32 50 17 27 1012.7 - 0.2
15/04:30pm 12.1 4.3 4.7 60 3.4 WSW 35 50 19 27 1012.6 - 0.2
15/04:00pm 11.8 4.8 6.1 68 2.7 WSW 32 43 17 23 1012.4 - 0.2
15/03:30pm 11.3 2.9 5.7 68 2.6 SW 39 50 21 27 1012.2 - 0.2
15/03:29pm 11.7 3.4 6.2 69 2.6 SW 39 50 21 27 1012.2 - 0.2
15/03:18pm 12.8 5.3 6.1 64 3.2 W 35 54 19 29 1012.1 - 0.2
15/03:00pm 12.7 5.7 6.0 63 3.2 W 32 44 17 24 1012.0 1012.2 0.2
15/02:30pm 13.0 5.6 5.1 58 3.7 W 33 46 18 25 1012.1 - 0.2
15/02:09pm 11.0 3.3 5.4 68 2.6 WSW 35 54 19 29 1012.0 - 0.2
15/02:00pm 10.8 3.1 7.3 79 1.7 WSW 37 52 20 28 1011.9 - 0.2
15/01:45pm 12.8 6.0 5.1 59 3.6 WSW 30 54 16 29 1011.9 - 0.2
15/01:30pm 13.4 6.1 4.3 54 4.2 W 32 43 17 23 1012.0 - 0.2
15/01:00pm 12.5 5.5 8.3 75 2.1 WSW 35 54 19 29 1012.1 - 0.2
15/12:51pm 13.7 6.2 6.5 62 3.5 WSW 35 54 19 29 1012.0 - 0.2
15/12:30pm 13.9 5.7 5.0 55 4.2 W 37 50 20 27 1012.0 - 0.2
15/12:20pm 13.9 5.8 5.2 55 4.1 W 37 56 20 30 1012.1 - 0.2
15/12:00pm 14.0 5.9 5.1 55 4.2 W 37 50 20 27 1012.1 1012.3 0.2
15/11:30am 13.3 4.7 4.4 55 4.1 W 39 54 21 29 1012.1 - 0.0
15/11:11am 13.6 6.0 5.6 58 3.8 W 35 54 19 29 1012.1 - 0.0
15/11:00am 13.2 4.7 5.3 58 3.7 W 39 54 21 29 1012.2 - 0.0
15/10:30am 12.5 5.6 7.2 70 2.6 W 33 48 18 26 1012.1 - 0.0
15/10:26am 12.2 5.7 8.2 76 2.0 W 32 43 17 23 1012.1 - 0.0
15/10:00am 11.2 3.3 7.9 80 1.6 WSW 39 54 21 29 1012.0 - 0.0
15/09:53am 12.0 3.4 8.2 77 1.9 WSW 43 54 23 29 1011.9 - 0.0
15/09:48am 12.8 6.3 6.3 64 3.1 W 30 50 16 27 1011.7 - 0.0
15/09:30am 13.0 6.5 6.3 64 3.2 W 30 44 16 24 1011.7 - 0.0
15/09:14am 12.3 4.2 5.2 62 3.3 W 37 57 20 31 1011.6 - 0.0
15/09:00am 12.8 5.0 5.1 59 3.6 W 35 48 19 26 1011.4 1011.6 0.0
15/08:30am 12.6 5.0 4.1 56 3.9 W 33 50 18 27 1011.3 - 0.0
15/08:00am 12.2 4.4 5.1 62 3.3 W 35 56 19 30 1011.1 - 0.0
15/07:43am 12.2 3.8 3.5 55 3.9 W 37 56 20 30 1010.9 - 0.0
15/07:30am 11.9 3.9 3.9 58 3.6 W 35 48 19 26 1010.8 - 0.0
15/07:13am 11.9 4.2 3.4 56 3.8 W 33 52 18 28 1010.7 - 0.0
15/07:00am 11.9 3.0 2.8 53 4.0 W 39 56 21 30 1010.6 - 0.0
15/06:30am 12.0 4.6 3.8 57 3.7 WSW 32 52 17 28 1010.7 - 0.0
15/06:00am 12.2 4.6 4.1 57 3.7 W 33 54 18 29 1010.4 1010.5 0.0
15/05:54am 12.2 4.3 4.6 59 3.5 WSW 35 54 19 29 1010.3 - 0.0
15/05:30am 12.8 3.3 4.1 55 4.0 W 43 56 23 30 1010.2 - 0.0
15/05:22am 12.7 4.5 4.5 57 3.8 W 37 56 20 30 1010.1 - 0.0
15/05:00am 12.7 4.3 5.5 61 3.4 W 39 52 21 28 1010.2 - 0.0
15/04:44am 12.6 5.1 6.1 64 3.1 W 35 54 19 29 1010.3 - 0.0
15/04:30am 12.8 5.5 7.1 68 2.8 W 35 52 19 28 1010.2 - 0.0
15/04:05am 13.0 5.2 6.8 66 3.0 W 37 63 20 34 1010.0 - 0.0
15/04:00am 13.0 5.9 8.0 71 2.5 W 35 48 19 26 1009.9 - 0.0
15/03:30am 13.3 5.2 7.0 65 3.1 W 39 57 21 31 1009.8 - 0.0
15/03:24am 13.2 5.4 6.8 65 3.1 W 37 57 20 31 1009.7 - 0.0
15/03:00am 13.5 6.0 7.9 69 2.8 W 37 50 20 27 1010.1 1010.2 0.0
15/02:32am 13.4 6.1 7.1 65 3.1 W 35 54 19 29 1010.0 - 0.0
15/02:30am 13.4 6.7 8.2 71 2.6 W 33 46 18 25 1009.9 - 0.0
15/02:00am 13.4 6.3 8.0 70 2.7 W 35 56 19 30 1010.3 - 0.0
15/01:30am 13.2 5.4 9.7 79 1.8 W 41 59 22 32 1010.5 - 0.0
15/01:01am 14.5 8.2 10.9 79 1.9 W 35 54 19 29 1010.3 - 0.0
15/01:00am 14.5 7.8 10.9 79 1.9 W 37 54 20 29 1010.3 - 0.0
15/12:30am 14.5 7.8 11.1 80 1.8 W 37 56 20 30 1010.2 - 0.0
15/12:12am 14.3 6.8 10.9 80 1.8 W 41 59 22 32 1010.5 - 0.0
15/12:00am 15.0 7.0 10.3 73 2.5 W 43 59 23 32 1010.6 1010.7 0.0
 
Date/Time
CST
Temp
°C
App
Temp
°C
Dew
Point
°C
Rel
Hum
%
Delta-T
°C
Wind Press
QNH
hPa
Press
MSL
hPa
Rain since
9am
mm
Dir  Spd
km/h
Gust
km/h
Spd
kts
Gust
kts
14/11:32pm 15.2 7.2 10.5 73 2.5 W 43 63 23 34 1010.6 - 0.0
14/11:30pm 15.3 7.3 10.6 73 2.5 W 43 59 23 32 1010.6 - 0.0
14/11:08pm 15.4 8.2 10.7 73 2.5 WNW 39 61 21 33 1010.4 - 0.0
14/11:00pm 15.5 8.4 10.8 73 2.5 WNW 39 54 21 29 1010.4 - 0.0
14/10:50pm 15.6 8.3 10.3 70 2.8 WNW 39 57 21 31 1010.4 - 0.0
14/10:30pm 15.5 8.6 10.2 70 2.8 WNW 37 50 20 27 1010.4 - 0.0
14/10:00pm 15.8 8.3 9.3 65 3.4 WNW 39 57 21 31 1010.5 - 0.0
14/09:30pm 16.0 7.2 8.2 60 4.0 NW 44 67 24 36 1009.9 - 0.0
14/09:02pm 15.9 7.6 7.6 58 4.2 NW 41 61 22 33 1009.6 - 0.0
14/09:00pm 15.9 7.6 7.6 58 4.2 NW 41 57 22 31 1009.6 1009.7 0.0
14/08:30pm 15.9 7.1 7.1 56 4.4 NW 43 65 23 35 1009.4 - 0.0
14/08:08pm 15.8 6.9 7.0 56 4.4 NW 43 65 23 35 1010.0 - 0.0
14/08:00pm 15.7 7.2 7.1 56 4.3 NW 41 57 22 31 1009.9 - 0.0
14/07:45pm 15.5 7.1 7.5 59 4.0 NNW 41 59 22 32 1009.9 - 0.0
14/07:30pm 15.5 7.1 7.3 58 4.1 NW 41 54 22 29 1010.0 - 0.0
14/07:01pm 15.4 7.7 7.2 58 4.1 NNW 37 56 20 30 1010.3 - 0.0
14/07:00pm 15.3 7.3 7.3 59 4.0 NNW 39 56 21 30 1010.3 - 0.0
14/06:30pm 14.9 8.5 8.6 66 3.2 NNW 32 50 17 27 1010.4 - 0.0
14/06:27pm 14.7 8.5 9.3 70 2.8 NNW 32 50 17 27 1010.5 - 0.0
14/06:00pm 15.0 8.5 9.0 67 3.1 NNW 33 44 18 24 1010.4 1010.5 0.0
14/05:30pm 15.2 8.8 8.6 64 3.4 NNW 32 48 17 26 1010.6 - 0.0
14/05:00pm 15.3 10.1 10.2 71 2.7 N 28 41 15 22 1010.8 - 0.0
14/04:39pm 15.4 8.9 9.0 65 3.3 N 33 52 18 28 1011.1 - 0.0
14/04:30pm 15.5 8.2 8.9 65 3.4 N 37 50 20 27 1011.3 - 0.0
14/04:00pm 15.8 9.3 8.8 63 3.6 NNW 33 48 18 26 1011.8 - 0.0
14/03:30pm 15.7 9.4 9.1 65 3.4 NNW 32 46 17 25 1012.3 - 0.0
14/03:00pm 16.0 9.7 8.8 62 3.7 NNW 32 44 17 24 1013.0 1013.2 0.0
14/02:30pm 15.8 9.4 9.3 65 3.4 N 33 48 18 26 1013.6 - 0.0
14/02:00pm 15.5 9.1 8.7 64 3.5 NNW 32 46 17 25 1014.3 - 0.0
14/01:30pm 15.5 9.0 8.0 61 3.8 N 32 44 17 24 1014.9 - 0.0
14/01:00pm 15.8 8.8 6.7 54 4.5 NNW 33 50 18 27 1015.9 - 0.0
14/12:30pm 15.5 8.4 6.5 55 4.4 NNW 33 44 18 24 1016.9 - 0.0
14/12:00pm 15.1 8.4 7.2 59 3.9 NNW 32 44 17 24 1017.6 1017.8 0.0
14/11:30am 14.8 8.4 8.7 67 3.1 N 32 44 17 24 1018.0 - 0.0
14/11:00am 14.8 8.0 7.6 62 3.6 N 33 50 18 27 1018.3 - 0.0
14/10:50am 14.6 7.7 6.6 58 3.9 N 32 50 17 27 1018.7 - 0.0
14/10:30am 14.6 7.0 5.6 54 4.3 NNW 35 50 19 27 1019.2 - 0.0
14/10:00am 14.3 7.3 6.0 57 4.0 NNW 32 46 17 25 1019.6 - 0.0
14/09:30am 14.0 7.2 6.8 62 3.5 NNW 32 43 17 23 1020.1 - 0.0
14/09:00am 13.3 8.0 8.3 72 2.5 N 26 43 14 23 1020.6 1020.8 0.2
14/08:30am 13.0 7.2 8.0 71 2.5 N 28 39 15 21 1020.8 - 0.2
14/08:00am 12.8 7.3 7.7 71 2.5 N 26 39 14 21 1020.8 - 0.2
14/07:30am 12.4 7.0 8.2 75 2.1 N 26 39 14 21 1020.9 - 0.2
14/07:00am 12.2 6.5 8.4 77 1.9 N 28 39 15 21 1021.1 - 0.2
14/06:30am 12.1 6.8 8.5 78 1.8 N 26 43 14 23 1021.2 - 0.2
14/06:00am 11.9 7.2 9.3 84 1.3 N 24 35 13 19 1021.6 1021.7 0.2
14/05:30am 11.8 6.6 9.0 83 1.4 N 26 35 14 19 1022.0 - 0.2
14/05:00am 11.5 6.9 9.5 87 1.0 N 24 37 13 20 1022.1 - 0.2
14/04:30am 11.6 7.0 9.8 89 0.9 N 24 30 13 16 1022.4 - 0.2
14/04:00am 11.5 7.7 9.9 90 0.8 N 20 28 11 15 1022.8 - 0.2
14/03:30am 11.5 6.9 9.7 89 0.9 N 24 33 13 18 1023.1 - 0.2
14/03:00am 11.6 7.0 9.6 87 1.0 N 24 32 13 17 1023.4 1023.6 0.2
14/02:30am 11.7 7.0 9.3 85 1.2 N 24 32 13 17 1023.5 - 0.2
14/02:00am 11.9 6.9 9.7 86 1.1 N 26 39 14 21 1024.0 - 0.2
14/01:30am 11.8 6.3 9.0 83 1.4 N 28 39 15 21 1024.5 - 0.2
14/01:00am 11.7 6.1 8.9 83 1.4 N 28 39 15 21 1025.0 - 0.2
14/12:30am 11.8 7.0 9.0 83 1.4 N 24 37 13 20 1025.2 - 0.2
14/12:00am 12.2 8.2 9.2 82 1.5 N 20 30 11 16 1025.6 1025.8 0.2
 
Date/Time
CST
Temp
°C
App
Temp
°C
Dew
Point
°C
Rel
Hum
%
Delta-T
°C
Wind Press
QNH
hPa
Press
MSL
hPa
Rain since
9am
mm
Dir  Spd
km/h
Gust
km/h
Spd
kts
Gust
kts
13/11:30pm 12.2 8.3 9.4 83 1.4 NNW 20 28 11 15 1026.0 - 0.2
13/11:00pm 12.1 8.1 9.1 82 1.5 NNW 20 26 11 14 1026.3 - 0.2
13/10:30pm 12.0 8.1 8.8 81 1.6 NW 19 26 10 14 1026.5 - 0.2
13/10:00pm 12.0 8.0 8.4 78 1.8 NW 19 24 10 13 1026.6 - 0.2
13/09:30pm 12.3 8.1 8.3 76 2.0 NW 20 26 11 14 1026.9 - 0.2
13/09:00pm 12.6 8.0 8.2 74 2.2 NW 22 30 12 16 1027.2 1027.5 0.2
13/08:30pm 12.5 7.5 8.0 74 2.2 NW 24 33 13 18 1027.5 - 0.2
13/08:00pm 12.8 7.3 7.7 71 2.5 NW 26 35 14 19 1027.3 - 0.2
13/07:30pm 12.7 7.5 7.4 70 2.6 WNW 24 33 13 18 1027.5 - 0.2
13/07:00pm 12.6 7.5 7.5 71 2.5 NW 24 32 13 17 1027.1 - 0.2
13/06:30pm 12.6 7.9 7.7 72 2.4 WNW 22 32 12 17 1026.9 - 0.2
13/06:00pm 12.6 7.9 7.7 72 2.4 WNW 22 35 12 19 1026.8 1027.0 0.2
13/05:30pm 12.7 8.0 7.8 72 2.4 WNW 22 32 12 17 1026.9 - 0.2
13/05:00pm 13.0 8.5 8.4 73 2.3 WNW 22 30 12 16 1026.9 - 0.2
13/04:30pm 13.1 8.6 8.5 73 2.3 WNW 22 33 12 18 1027.0 - 0.2
13/04:00pm 13.4 8.9 8.4 72 2.5 WNW 22 32 12 17 1027.1 - 0.2
13/03:30pm 13.5 8.9 8.3 71 2.6 WNW 22 35 12 19 1027.2 - 0.2
13/03:00pm 13.7 9.1 8.1 69 2.8 WNW 22 35 12 19 1027.2 1027.5 0.2
13/02:30pm 14.2 9.9 8.0 66 3.1 WNW 20 30 11 16 1027.2 - 0.2
13/02:00pm 14.4 9.3 7.8 64 3.3 WNW 24 33 13 18 1027.3 - 0.2
13/01:30pm 14.8 10.7 8.7 67 3.1 WNW 20 28 11 15 1027.5 - 0.2
13/01:00pm 14.6 9.6 8.2 65 3.2 W 24 33 13 18 1028.0 - 0.2
13/12:30pm 14.3 9.6 7.9 65 3.2 WNW 22 30 12 16 1028.5 - 0.2
13/12:00pm 14.1 9.5 8.1 67 3.0 W 22 32 12 17 1028.9 1029.1 0.2
13/11:30am 13.9 9.2 7.6 66 3.1 W 22 28 12 15 1029.3 - 0.2
13/11:00am 13.6 8.3 7.0 64 3.2 W 24 33 13 18 1029.6 - 0.2
13/10:30am 13.7 8.5 7.1 64 3.2 W 24 33 13 18 1029.6 - 0.0
13/10:00am 13.2 7.8 6.5 64 3.2 W 24 32 13 17 1029.5 - 0.0
13/09:30am 13.2 7.9 6.8 65 3.1 W 24 33 13 18 1029.4 - 0.0
13/09:00am 13.0 8.4 6.5 64 3.1 W 20 28 11 15 1029.2 1029.4 0.6
13/08:30am 12.4 7.5 7.0 69 2.6 W 22 30 12 16 1029.1 - 0.6
13/08:00am 12.2 7.4 7.2 71 2.4 W 22 28 12 15 1028.8 - 0.6
13/07:30am 11.7 7.2 7.1 73 2.2 W 20 32 11 17 1028.6 - 0.6
13/07:00am 11.2 6.9 7.7 79 1.7 W 20 26 11 14 1028.3 - 0.6
13/06:30am 11.1 6.3 7.4 78 1.8 W 22 30 12 16 1028.2 - 0.6

Other Formats:

Comma delimited format used in spreadsheet applications
http://www.bom.gov.au/fwo/IDS60801/IDS60801.95805.axf

JavaScript Object Notation format (JSON) in row-major order
http://www.bom.gov.au/fwo/IDS60801/IDS60801.95805.json